sensor_id;sensor_type;location;lat;lon;timestamp;P1;durP1;ratioP1;P2;durP2;ratioP2
15012;SDS011;7603;49.432;11.418;2022-08-21T00:01:47;24.92;;;14.00;;
15012;SDS011;7603;49.432;11.418;2022-08-21T00:04:12;20.40;;;16.65;;
15012;SDS011;7603;49.432;11.418;2022-08-21T00:06:38;20.05;;;14.18;;
15012;SDS011;7603;49.432;11.418;2022-08-21T00:09:05;78.15;;;25.95;;
15012;SDS011;7603;49.432;11.418;2022-08-21T00:11:32;28.48;;;17.48;;
15012;SDS011;7603;49.432;11.418;2022-08-21T00:14:00;34.38;;;18.88;;
15012;SDS011;7603;49.432;11.418;2022-08-21T00:16:26;31.05;;;16.17;;
15012;SDS011;7603;49.432;11.418;2022-08-21T00:18:51;22.20;;;14.55;;
15012;SDS011;7603;49.432;11.418;2022-08-21T00:21:17;37.33;;;19.02;;
15012;SDS011;7603;49.432;11.418;2022-08-21T00:23:43;24.73;;;15.55;;
15012;SDS011;7603;49.432;11.418;2022-08-21T00:26:08;16.13;;;13.15;;
15012;SDS011;7603;49.432;11.418;2022-08-21T00:28:34;18.42;;;12.60;;
15012;SDS011;7603;49.432;11.418;2022-08-21T00:31:00;19.55;;;14.20;;
15012;SDS011;7603;49.432;11.418;2022-08-21T00:33:28;21.40;;;15.60;;
15012;SDS011;7603;49.432;11.418;2022-08-21T00:35:55;22.52;;;14.65;;
15012;SDS011;7603;49.432;11.418;2022-08-21T00:38:21;21.95;;;16.00;;
15012;SDS011;7603;49.432;11.418;2022-08-21T00:40:49;34.80;;;18.83;;
15012;SDS011;7603;49.432;11.418;2022-08-21T00:43:22;28.73;;;20.92;;
15012;SDS011;7603;49.432;11.418;2022-08-21T00:45:54;28.67;;;16.77;;
15012;SDS011;7603;49.432;11.418;2022-08-21T00:48:21;30.85;;;17.20;;
15012;SDS011;7603;49.432;11.418;2022-08-21T00:53:26;152.80;;;38.53;;
15012;SDS011;7603;49.432;11.418;2022-08-21T00:55:54;143.80;;;31.50;;
15012;SDS011;7603;49.432;11.418;2022-08-21T00:58:21;233.27;;;42.63;;
15012;SDS011;7603;49.432;11.418;2022-08-21T01:00:48;43.95;;;20.70;;
15012;SDS011;7603;49.432;11.418;2022-08-21T01:03:16;38.50;;;20.27;;
15012;SDS011;7603;49.432;11.418;2022-08-21T01:05:46;36.00;;;19.85;;
15012;SDS011;7603;49.432;11.418;2022-08-21T01:08:13;34.92;;;20.20;;
15012;SDS011;7603;49.432;11.418;2022-08-21T01:10:41;31.73;;;18.00;;
15012;SDS011;7603;49.432;11.418;2022-08-21T01:13:07;29.58;;;19.52;;
15012;SDS011;7603;49.432;11.418;2022-08-21T01:15:39;41.70;;;21.55;;
15012;SDS011;7603;49.432;11.418;2022-08-21T01:18:09;29.70;;;19.42;;
15012;SDS011;7603;49.432;11.418;2022-08-21T01:20:36;70.50;;;28.02;;
15012;SDS011;7603;49.432;11.418;2022-08-21T01:23:04;54.15;;;24.30;;
15012;SDS011;7603;49.432;11.418;2022-08-21T01:25:31;41.25;;;22.50;;
15012;SDS011;7603;49.432;11.418;2022-08-21T01:27:59;34.33;;;19.80;;
15012;SDS011;7603;49.432;11.418;2022-08-21T01:30:31;50.00;;;23.92;;
15012;SDS011;7603;49.432;11.418;2022-08-21T01:33:01;37.83;;;20.80;;
15012;SDS011;7603;49.432;11.418;2022-08-21T01:35:27;33.00;;;21.10;;
15012;SDS011;7603;49.432;11.418;2022-08-21T01:37:54;27.15;;;19.27;;
15012;SDS011;7603;49.432;11.418;2022-08-21T01:40:19;27.25;;;18.33;;
15012;SDS011;7603;49.432;11.418;2022-08-21T01:42:46;30.40;;;18.20;;
15012;SDS011;7603;49.432;11.418;2022-08-21T01:45:13;76.05;;;28.42;;
15012;SDS011;7603;49.432;11.418;2022-08-21T01:47:40;82.35;;;31.10;;
15012;SDS011;7603;49.432;11.418;2022-08-21T01:50:08;288.73;;;57.50;;
15012;SDS011;7603;49.432;11.418;2022-08-21T01:52:36;293.27;;;58.88;;
15012;SDS011;7603;49.432;11.418;2022-08-21T01:55:03;319.25;;;55.78;;
15012;SDS011;7603;49.432;11.418;2022-08-21T01:57:30;385.60;;;61.58;;
15012;SDS011;7603;49.432;11.418;2022-08-21T01:59:57;435.25;;;71.18;;
15012;SDS011;7603;49.432;11.418;2022-08-21T02:02:24;454.17;;;72.55;;
15012;SDS011;7603;49.432;11.418;2022-08-21T02:04:49;113.90;;;40.03;;
15012;SDS011;7603;49.432;11.418;2022-08-21T02:07:15;422.45;;;63.22;;
15012;SDS011;7603;49.432;11.418;2022-08-21T02:09:41;334.63;;;48.75;;
15012;SDS011;7603;49.432;11.418;2022-08-21T02:12:07;308.85;;;49.80;;
15012;SDS011;7603;49.432;11.418;2022-08-21T02:14:34;331.77;;;53.30;;
15012;SDS011;7603;49.432;11.418;2022-08-21T02:17:00;186.77;;;39.95;;
15012;SDS011;7603;49.432;11.418;2022-08-21T02:19:26;210.43;;;33.95;;
15012;SDS011;7603;49.432;11.418;2022-08-21T02:21:51;140.70;;;38.13;;
15012;SDS011;7603;49.432;11.418;2022-08-21T02:24:17;418.50;;;70.82;;
15012;SDS011;7603;49.432;11.418;2022-08-21T02:26:43;370.55;;;57.47;;
15012;SDS011;7603;49.432;11.418;2022-08-21T02:29:08;241.30;;;46.13;;
15012;SDS011;7603;49.432;11.418;2022-08-21T02:31:34;155.73;;;39.30;;
15012;SDS011;7603;49.432;11.418;2022-08-21T02:34:00;166.93;;;40.10;;
15012;SDS011;7603;49.432;11.418;2022-08-21T02:36:26;201.50;;;32.97;;
15012;SDS011;7603;49.432;11.418;2022-08-21T02:38:52;188.27;;;40.65;;
15012;SDS011;7603;49.432;11.418;2022-08-21T02:41:19;274.80;;;56.58;;
15012;SDS011;7603;49.432;11.418;2022-08-21T02:43:46;347.38;;;57.03;;
15012;SDS011;7603;49.432;11.418;2022-08-21T02:46:13;393.20;;;58.38;;
15012;SDS011;7603;49.432;11.418;2022-08-21T02:48:42;312.25;;;52.80;;
15012;SDS011;7603;49.432;11.418;2022-08-21T02:51:09;386.15;;;57.15;;
15012;SDS011;7603;49.432;11.418;2022-08-21T02:53:37;273.13;;;46.42;;
15012;SDS011;7603;49.432;11.418;2022-08-21T02:56:05;244.15;;;46.42;;
15012;SDS011;7603;49.432;11.418;2022-08-21T02:58:36;429.65;;;59.63;;
15012;SDS011;7603;49.432;11.418;2022-08-21T03:01:04;205.70;;;38.53;;
15012;SDS011;7603;49.432;11.418;2022-08-21T03:03:33;183.88;;;41.30;;
15012;SDS011;7603;49.432;11.418;2022-08-21T03:06:00;255.52;;;45.03;;
15012;SDS011;7603;49.432;11.418;2022-08-21T03:08:26;151.25;;;38.33;;
15012;SDS011;7603;49.432;11.418;2022-08-21T03:10:52;156.82;;;37.75;;
15012;SDS011;7603;49.432;11.418;2022-08-21T03:13:18;63.38;;;26.75;;
15012;SDS011;7603;49.432;11.418;2022-08-21T03:15:45;86.60;;;30.58;;
15012;SDS011;7603;49.432;11.418;2022-08-21T03:18:12;62.97;;;24.98;;
15012;SDS011;7603;49.432;11.418;2022-08-21T03:20:39;96.63;;;31.67;;
15012;SDS011;7603;49.432;11.418;2022-08-21T03:23:06;385.35;;;53.30;;
15012;SDS011;7603;49.432;11.418;2022-08-21T03:25:32;293.80;;;45.28;;
15012;SDS011;7603;49.432;11.418;2022-08-21T03:27:59;224.88;;;44.28;;
15012;SDS011;7603;49.432;11.418;2022-08-21T03:30:26;286.40;;;46.50;;
15012;SDS011;7603;49.432;11.418;2022-08-21T03:32:52;291.73;;;47.08;;
15012;SDS011;7603;49.432;11.418;2022-08-21T03:35:19;118.65;;;32.00;;
15012;SDS011;7603;49.432;11.418;2022-08-21T03:37:46;85.40;;;29.60;;
15012;SDS011;7603;49.432;11.418;2022-08-21T03:40:13;127.80;;;30.83;;
15012;SDS011;7603;49.432;11.418;2022-08-21T03:42:41;181.70;;;40.42;;
15012;SDS011;7603;49.432;11.418;2022-08-21T03:45:07;140.98;;;32.92;;
15012;SDS011;7603;49.432;11.418;2022-08-21T03:47:34;114.72;;;28.52;;
15012;SDS011;7603;49.432;11.418;2022-08-21T03:50:00;50.42;;;25.27;;
15012;SDS011;7603;49.432;11.418;2022-08-21T03:52:28;60.47;;;25.60;;
15012;SDS011;7603;49.432;11.418;2022-08-21T03:54:54;24.02;;;18.40;;
15012;SDS011;7603;49.432;11.418;2022-08-21T03:57:20;32.88;;;19.77;;
15012;SDS011;7603;49.432;11.418;2022-08-21T03:59:46;39.38;;;20.98;;
15012;SDS011;7603;49.432;11.418;2022-08-21T04:02:12;45.22;;;23.23;;
15012;SDS011;7603;49.432;11.418;2022-08-21T04:04:42;43.72;;;24.08;;
15012;SDS011;7603;49.432;11.418;2022-08-21T04:07:08;43.47;;;22.25;;
15012;SDS011;7603;49.432;11.418;2022-08-21T04:09:33;54.60;;;24.02;;
15012;SDS011;7603;49.432;11.418;2022-08-21T04:11:59;64.03;;;25.70;;
15012;SDS011;7603;49.432;11.418;2022-08-21T04:14:25;77.65;;;27.48;;
15012;SDS011;7603;49.432;11.418;2022-08-21T04:16:51;85.25;;;26.85;;
15012;SDS011;7603;49.432;11.418;2022-08-21T04:19:17;58.50;;;24.00;;
15012;SDS011;7603;49.432;11.418;2022-08-21T04:21:42;67.95;;;24.48;;
15012;SDS011;7603;49.432;11.418;2022-08-21T04:24:09;92.90;;;29.30;;
15012;SDS011;7603;49.432;11.418;2022-08-21T04:26:35;75.78;;;26.88;;
15012;SDS011;7603;49.432;11.418;2022-08-21T04:29:02;124.80;;;32.50;;
15012;SDS011;7603;49.432;11.418;2022-08-21T04:31:31;69.65;;;28.17;;
15012;SDS011;7603;49.432;11.418;2022-08-21T04:33:58;181.35;;;39.47;;
15012;SDS011;7603;49.432;11.418;2022-08-21T04:36:24;61.45;;;26.48;;
15012;SDS011;7603;49.432;11.418;2022-08-21T04:38:50;51.13;;;23.08;;
15012;SDS011;7603;49.432;11.418;2022-08-21T04:41:16;61.83;;;25.45;;
15012;SDS011;7603;49.432;11.418;2022-08-21T04:43:41;73.45;;;27.80;;
15012;SDS011;7603;49.432;11.418;2022-08-21T04:46:07;77.35;;;29.30;;
15012;SDS011;7603;49.432;11.418;2022-08-21T04:48:33;53.45;;;24.55;;
15012;SDS011;7603;49.432;11.418;2022-08-21T04:51:06;63.65;;;26.35;;
15012;SDS011;7603;49.432;11.418;2022-08-21T04:53:42;36.08;;;20.73;;
15012;SDS011;7603;49.432;11.418;2022-08-21T04:59:00;47.05;;;21.65;;
15012;SDS011;7603;49.432;11.418;2022-08-21T05:01:30;93.97;;;29.80;;
15012;SDS011;7603;49.432;11.418;2022-08-21T05:03:59;97.35;;;33.10;;
15012;SDS011;7603;49.432;11.418;2022-08-21T05:06:28;134.32;;;35.88;;
15012;SDS011;7603;49.432;11.418;2022-08-21T05:08:58;190.20;;;40.00;;
15012;SDS011;7603;49.432;11.418;2022-08-21T05:11:24;110.25;;;32.45;;
15012;SDS011;7603;49.432;11.418;2022-08-21T05:13:49;48.45;;;22.70;;
15012;SDS011;7603;49.432;11.418;2022-08-21T05:16:15;46.47;;;22.15;;
15012;SDS011;7603;49.432;11.418;2022-08-21T05:18:42;41.15;;;22.48;;
15012;SDS011;7603;49.432;11.418;2022-08-21T05:21:08;46.45;;;23.48;;
15012;SDS011;7603;49.432;11.418;2022-08-21T05:23:34;39.70;;;23.20;;
15012;SDS011;7603;49.432;11.418;2022-08-21T05:26:01;45.03;;;23.10;;
15012;SDS011;7603;49.432;11.418;2022-08-21T05:28:27;35.05;;;20.00;;
15012;SDS011;7603;49.432;11.418;2022-08-21T05:30:53;31.58;;;19.60;;
15012;SDS011;7603;49.432;11.418;2022-08-21T05:33:18;32.22;;;19.65;;
15012;SDS011;7603;49.432;11.418;2022-08-21T05:35:44;21.42;;;16.23;;
15012;SDS011;7603;49.432;11.418;2022-08-21T05:38:10;20.50;;;15.90;;
15012;SDS011;7603;49.432;11.418;2022-08-21T05:40:36;22.33;;;17.35;;
15012;SDS011;7603;49.432;11.418;2022-08-21T05:43:02;18.55;;;15.45;;
15012;SDS011;7603;49.432;11.418;2022-08-21T05:45:29;26.90;;;20.30;;
15012;SDS011;7603;49.432;11.418;2022-08-21T05:47:57;121.78;;;33.05;;
15012;SDS011;7603;49.432;11.418;2022-08-21T05:50:22;48.67;;;25.08;;
15012;SDS011;7603;49.432;11.418;2022-08-21T05:52:48;32.28;;;20.50;;
15012;SDS011;7603;49.432;11.418;2022-08-21T05:55:14;26.42;;;18.08;;
15012;SDS011;7603;49.432;11.418;2022-08-21T05:57:40;37.08;;;21.75;;
15012;SDS011;7603;49.432;11.418;2022-08-21T06:00:06;34.58;;;22.13;;
15012;SDS011;7603;49.432;11.418;2022-08-21T06:02:35;25.92;;;15.85;;
15012;SDS011;7603;49.432;11.418;2022-08-21T06:05:01;17.65;;;15.32;;
15012;SDS011;7603;49.432;11.418;2022-08-21T06:07:27;15.48;;;13.95;;
15012;SDS011;7603;49.432;11.418;2022-08-21T06:09:53;14.50;;;13.23;;
15012;SDS011;7603;49.432;11.418;2022-08-21T06:12:19;14.25;;;12.88;;
15012;SDS011;7603;49.432;11.418;2022-08-21T06:14:45;11.48;;;10.60;;
15012;SDS011;7603;49.432;11.418;2022-08-21T06:17:11;10.85;;;9.95;;
15012;SDS011;7603;49.432;11.418;2022-08-21T06:19:38;13.57;;;12.18;;
15012;SDS011;7603;49.432;11.418;2022-08-21T06:22:04;26.30;;;13.95;;
15012;SDS011;7603;49.432;11.418;2022-08-21T06:24:30;52.53;;;18.98;;
15012;SDS011;7603;49.432;11.418;2022-08-21T06:26:56;30.80;;;15.85;;
15012;SDS011;7603;49.432;11.418;2022-08-21T06:29:23;18.08;;;14.52;;
15012;SDS011;7603;49.432;11.418;2022-08-21T06:31:50;15.90;;;13.48;;
15012;SDS011;7603;49.432;11.418;2022-08-21T06:34:16;12.40;;;11.27;;
15012;SDS011;7603;49.432;11.418;2022-08-21T06:36:42;10.88;;;9.85;;
15012;SDS011;7603;49.432;11.418;2022-08-21T06:39:08;12.25;;;11.25;;
15012;SDS011;7603;49.432;11.418;2022-08-21T06:41:34;11.43;;;10.35;;
15012;SDS011;7603;49.432;11.418;2022-08-21T06:44:00;11.60;;;10.50;;
15012;SDS011;7603;49.432;11.418;2022-08-21T06:46:27;12.40;;;11.30;;
15012;SDS011;7603;49.432;11.418;2022-08-21T06:48:54;42.78;;;13.07;;
15012;SDS011;7603;49.432;11.418;2022-08-21T06:51:20;53.72;;;13.20;;
15012;SDS011;7603;49.432;11.418;2022-08-21T06:53:47;11.77;;;10.82;;
15012;SDS011;7603;49.432;11.418;2022-08-21T06:56:14;11.13;;;9.80;;
15012;SDS011;7603;49.432;11.418;2022-08-21T06:58:40;12.07;;;11.05;;
15012;SDS011;7603;49.432;11.418;2022-08-21T07:01:06;10.75;;;9.93;;
15012;SDS011;7603;49.432;11.418;2022-08-21T07:03:36;44.33;;;11.73;;
15012;SDS011;7603;49.432;11.418;2022-08-21T07:06:04;10.40;;;9.40;;
15012;SDS011;7603;49.432;11.418;2022-08-21T07:08:31;14.77;;;10.70;;
15012;SDS011;7603;49.432;11.418;2022-08-21T07:10:58;33.65;;;16.05;;
15012;SDS011;7603;49.432;11.418;2022-08-21T07:13:25;21.58;;;11.35;;
15012;SDS011;7603;49.432;11.418;2022-08-21T07:15:51;52.90;;;13.27;;
15012;SDS011;7603;49.432;11.418;2022-08-21T07:18:17;69.90;;;15.25;;
15012;SDS011;7603;49.432;11.418;2022-08-21T07:20:43;15.07;;;10.32;;
15012;SDS011;7603;49.432;11.418;2022-08-21T07:23:17;17.45;;;10.65;;
15012;SDS011;7603;49.432;11.418;2022-08-21T07:25:48;14.25;;;10.75;;
15012;SDS011;7603;49.432;11.418;2022-08-21T07:28:14;29.38;;;11.43;;
15012;SDS011;7603;49.432;11.418;2022-08-21T07:30:39;12.40;;;11.23;;
15012;SDS011;7603;49.432;11.418;2022-08-21T07:33:05;16.25;;;10.60;;
15012;SDS011;7603;49.432;11.418;2022-08-21T07:35:30;13.85;;;10.32;;
15012;SDS011;7603;49.432;11.418;2022-08-21T07:37:58;12.20;;;10.02;;
15012;SDS011;7603;49.432;11.418;2022-08-21T07:40:24;12.40;;;9.38;;
15012;SDS011;7603;49.432;11.418;2022-08-21T07:42:49;9.95;;;9.15;;
15012;SDS011;7603;49.432;11.418;2022-08-21T07:45:16;8.95;;;8.45;;
15012;SDS011;7603;49.432;11.418;2022-08-21T07:47:45;9.50;;;8.80;;
15012;SDS011;7603;49.432;11.418;2022-08-21T07:50:12;9.20;;;8.50;;
15012;SDS011;7603;49.432;11.418;2022-08-21T07:52:38;8.77;;;8.18;;
15012;SDS011;7603;49.432;11.418;2022-08-21T07:55:05;9.43;;;8.75;;
15012;SDS011;7603;49.432;11.418;2022-08-21T07:57:31;9.25;;;8.60;;
15012;SDS011;7603;49.432;11.418;2022-08-21T07:59:57;8.68;;;8.07;;
15012;SDS011;7603;49.432;11.418;2022-08-21T08:02:27;8.88;;;8.27;;
15012;SDS011;7603;49.432;11.418;2022-08-21T08:04:58;8.70;;;8.05;;
15012;SDS011;7603;49.432;11.418;2022-08-21T08:07:28;10.57;;;9.88;;
15012;SDS011;7603;49.432;11.418;2022-08-21T08:09:54;10.02;;;9.32;;
15012;SDS011;7603;49.432;11.418;2022-08-21T08:12:20;9.63;;;8.93;;
15012;SDS011;7603;49.432;11.418;2022-08-21T08:14:46;10.27;;;9.60;;
15012;SDS011;7603;49.432;11.418;2022-08-21T08:17:12;11.35;;;10.40;;
15012;SDS011;7603;49.432;11.418;2022-08-21T08:19:38;10.48;;;9.75;;
15012;SDS011;7603;49.432;11.418;2022-08-21T08:22:18;9.60;;;9.10;;
15012;SDS011;7603;49.432;11.418;2022-08-21T08:24:46;11.32;;;10.63;;
15012;SDS011;7603;49.432;11.418;2022-08-21T08:27:13;9.43;;;8.85;;
15012;SDS011;7603;49.432;11.418;2022-08-21T08:29:39;9.60;;;8.90;;
15012;SDS011;7603;49.432;11.418;2022-08-21T08:32:05;10.27;;;9.68;;
15012;SDS011;7603;49.432;11.418;2022-08-21T08:34:35;10.50;;;9.80;;
15012;SDS011;7603;49.432;11.418;2022-08-21T08:37:02;11.00;;;10.13;;
15012;SDS011;7603;49.432;11.418;2022-08-21T08:39:30;11.48;;;10.57;;
15012;SDS011;7603;49.432;11.418;2022-08-21T08:44:45;11.70;;;10.77;;
15012;SDS011;7603;49.432;11.418;2022-08-21T08:47:23;11.50;;;10.70;;
15012;SDS011;7603;49.432;11.418;2022-08-21T08:50:05;12.30;;;11.52;;
15012;SDS011;7603;49.432;11.418;2022-08-21T08:52:36;9.98;;;9.38;;
15012;SDS011;7603;49.432;11.418;2022-08-21T08:55:19;12.65;;;11.63;;
15012;SDS011;7603;49.432;11.418;2022-08-21T08:57:51;17.17;;;15.77;;
15012;SDS011;7603;49.432;11.418;2022-08-21T09:00:18;12.93;;;12.10;;
15012;SDS011;7603;49.432;11.418;2022-08-21T09:02:46;11.65;;;10.77;;
15012;SDS011;7603;49.432;11.418;2022-08-21T09:05:22;13.48;;;12.52;;
15012;SDS011;7603;49.432;11.418;2022-08-21T09:13:19;12.63;;;11.85;;
15012;SDS011;7603;49.432;11.418;2022-08-21T09:15:58;13.23;;;12.32;;
15012;SDS011;7603;49.432;11.418;2022-08-21T09:24:01;13.90;;;12.90;;
15012;SDS011;7603;49.432;11.418;2022-08-21T09:26:31;13.93;;;12.60;;
15012;SDS011;7603;49.432;11.418;2022-08-21T09:29:05;12.20;;;11.48;;
15012;SDS011;7603;49.432;11.418;2022-08-21T09:31:36;13.07;;;12.18;;
15012;SDS011;7603;49.432;11.418;2022-08-21T09:34:06;11.45;;;10.75;;
15012;SDS011;7603;49.432;11.418;2022-08-21T09:36:40;12.07;;;11.38;;
15012;SDS011;7603;49.432;11.418;2022-08-21T09:39:12;12.48;;;11.68;;
15012;SDS011;7603;49.432;11.418;2022-08-21T09:41:49;11.88;;;11.18;;
15012;SDS011;7603;49.432;11.418;2022-08-21T09:44:26;12.52;;;11.73;;
15012;SDS011;7603;49.432;11.418;2022-08-21T09:46:54;13.25;;;12.45;;
15012;SDS011;7603;49.432;11.418;2022-08-21T09:49:31;12.27;;;11.57;;
15012;SDS011;7603;49.432;11.418;2022-08-21T09:52:06;12.10;;;11.48;;
15012;SDS011;7603;49.432;11.418;2022-08-21T09:54:48;13.00;;;12.15;;
15012;SDS011;7603;49.432;11.418;2022-08-21T09:57:27;11.70;;;10.90;;
15012;SDS011;7603;49.432;11.418;2022-08-21T10:00:47;11.77;;;11.05;;
15012;SDS011;7603;49.432;11.418;2022-08-21T10:03:07;11.38;;;10.77;;
15012;SDS011;7603;49.432;11.418;2022-08-21T10:05:50;12.77;;;12.07;;
15012;SDS011;7603;49.432;11.418;2022-08-21T10:08:25;11.98;;;11.20;;
15012;SDS011;7603;49.432;11.418;2022-08-21T10:10:57;11.50;;;10.80;;
15012;SDS011;7603;49.432;11.418;2022-08-21T10:16:06;10.48;;;9.55;;
15012;SDS011;7603;49.432;11.418;2022-08-21T10:18:44;10.18;;;9.57;;
15012;SDS011;7603;49.432;11.418;2022-08-21T10:26:52;9.05;;;8.40;;
15012;SDS011;7603;49.432;11.418;2022-08-21T10:43:49;6.57;;;6.28;;
15012;SDS011;7603;49.432;11.418;2022-08-21T10:49:09;8.07;;;7.68;;
15012;SDS011;7603;49.432;11.418;2022-08-21T10:55:06;6.97;;;6.35;;
15012;SDS011;7603;49.432;11.418;2022-08-21T10:57:40;7.68;;;7.00;;
15012;SDS011;7603;49.432;11.418;2022-08-21T11:00:12;6.93;;;6.45;;
15012;SDS011;7603;49.432;11.418;2022-08-21T11:02:52;6.80;;;6.38;;
15012;SDS011;7603;49.432;11.418;2022-08-21T11:05:26;6.75;;;6.25;;
15012;SDS011;7603;49.432;11.418;2022-08-21T11:08:11;5.78;;;5.47;;
15012;SDS011;7603;49.432;11.418;2022-08-21T11:10:47;5.50;;;5.20;;
15012;SDS011;7603;49.432;11.418;2022-08-21T11:15:51;5.18;;;4.88;;
15012;SDS011;7603;49.432;11.418;2022-08-21T11:18:47;4.75;;;4.55;;
15012;SDS011;7603;49.432;11.418;2022-08-21T11:21:46;4.90;;;4.53;;
15012;SDS011;7603;49.432;11.418;2022-08-21T11:25:03;3.80;;;3.58;;
15012;SDS011;7603;49.432;11.418;2022-08-21T11:27:56;3.28;;;3.17;;
15012;SDS011;7603;49.432;11.418;2022-08-21T11:30:27;3.78;;;3.58;;
15012;SDS011;7603;49.432;11.418;2022-08-21T11:35:53;3.53;;;3.33;;
15012;SDS011;7603;49.432;11.418;2022-08-21T11:38:32;3.25;;;3.15;;
15012;SDS011;7603;49.432;11.418;2022-08-21T11:51:33;3.80;;;3.60;;
15012;SDS011;7603;49.432;11.418;2022-08-21T11:56:48;3.13;;;2.97;;
15012;SDS011;7603;49.432;11.418;2022-08-21T11:59:51;3.40;;;3.20;;
15012;SDS011;7603;49.432;11.418;2022-08-21T12:02:36;4.38;;;3.38;;
15012;SDS011;7603;49.432;11.418;2022-08-21T12:05:08;3.30;;;3.20;;
15012;SDS011;7603;49.432;11.418;2022-08-21T12:07:46;2.92;;;2.83;;
15012;SDS011;7603;49.432;11.418;2022-08-21T12:10:17;3.05;;;2.85;;
15012;SDS011;7603;49.432;11.418;2022-08-21T12:12:47;3.33;;;3.20;;
15012;SDS011;7603;49.432;11.418;2022-08-21T12:15:16;2.72;;;2.63;;
15012;SDS011;7603;49.432;11.418;2022-08-21T12:20:42;2.95;;;2.75;;
15012;SDS011;7603;49.432;11.418;2022-08-21T12:25:39;2.97;;;2.67;;
15012;SDS011;7603;49.432;11.418;2022-08-21T12:28:11;2.75;;;2.65;;
15012;SDS011;7603;49.432;11.418;2022-08-21T12:30:41;2.88;;;2.33;;
15012;SDS011;7603;49.432;11.418;2022-08-21T12:33:19;2.30;;;2.20;;
15012;SDS011;7603;49.432;11.418;2022-08-21T12:36:15;3.78;;;2.70;;
15012;SDS011;7603;49.432;11.418;2022-08-21T12:38:51;2.83;;;2.60;;
15012;SDS011;7603;49.432;11.418;2022-08-21T12:41:28;2.10;;;2.00;;
15012;SDS011;7603;49.432;11.418;2022-08-21T12:44:08;2.55;;;2.38;;
15012;SDS011;7603;49.432;11.418;2022-08-21T12:46:50;2.33;;;2.28;;
15012;SDS011;7603;49.432;11.418;2022-08-21T12:49:34;2.30;;;2.20;;
15012;SDS011;7603;49.432;11.418;2022-08-21T12:52:04;2.47;;;2.28;;
15012;SDS011;7603;49.432;11.418;2022-08-21T12:54:32;2.08;;;1.98;;
15012;SDS011;7603;49.432;11.418;2022-08-21T12:57:05;2.10;;;2.00;;
15012;SDS011;7603;49.432;11.418;2022-08-21T12:59:32;2.03;;;1.92;;
15012;SDS011;7603;49.432;11.418;2022-08-21T13:02:03;1.95;;;1.95;;
15012;SDS011;7603;49.432;11.418;2022-08-21T13:04:39;2.20;;;2.10;;
15012;SDS011;7603;49.432;11.418;2022-08-21T13:07:07;45.97;;;43.70;;
15012;SDS011;7603;49.432;11.418;2022-08-21T13:09:44;2.10;;;2.00;;
15012;SDS011;7603;49.432;11.418;2022-08-21T13:12:14;2.30;;;2.20;;
15012;SDS011;7603;49.432;11.418;2022-08-21T13:14:43;1.73;;;1.73;;
15012;SDS011;7603;49.432;11.418;2022-08-21T13:17:12;2.10;;;2.00;;
15012;SDS011;7603;49.432;11.418;2022-08-21T13:19:41;2.20;;;2.10;;
15012;SDS011;7603;49.432;11.418;2022-08-21T13:22:13;2.40;;;2.30;;
15012;SDS011;7603;49.432;11.418;2022-08-21T13:24:40;1.90;;;1.80;;
15012;SDS011;7603;49.432;11.418;2022-08-21T13:27:26;2.35;;;1.83;;
15012;SDS011;7603;49.432;11.418;2022-08-21T13:30:07;1.80;;;1.70;;
15012;SDS011;7603;49.432;11.418;2022-08-21T13:32:37;2.00;;;1.90;;
15012;SDS011;7603;49.432;11.418;2022-08-21T13:35:09;2.03;;;1.92;;
15012;SDS011;7603;49.432;11.418;2022-08-21T13:37:42;2.00;;;1.85;;
15012;SDS011;7603;49.432;11.418;2022-08-21T13:40:10;1.83;;;1.83;;
15012;SDS011;7603;49.432;11.418;2022-08-21T13:42:49;2.30;;;2.20;;
15012;SDS011;7603;49.432;11.418;2022-08-21T13:45:23;1.75;;;1.65;;
15012;SDS011;7603;49.432;11.418;2022-08-21T13:47:56;2.97;;;1.73;;
15012;SDS011;7603;49.432;11.418;2022-08-21T13:50:23;1.90;;;1.80;;
15012;SDS011;7603;49.432;11.418;2022-08-21T13:52:54;1.95;;;1.85;;
15012;SDS011;7603;49.432;11.418;2022-08-21T13:55:36;1.50;;;1.50;;
15012;SDS011;7603;49.432;11.418;2022-08-21T13:58:05;1.92;;;1.85;;
15012;SDS011;7603;49.432;11.418;2022-08-21T14:00:43;1.70;;;1.60;;
15012;SDS011;7603;49.432;11.418;2022-08-21T14:03:26;1.60;;;1.60;;
15012;SDS011;7603;49.432;11.418;2022-08-21T14:05:57;1.80;;;1.70;;
15012;SDS011;7603;49.432;11.418;2022-08-21T14:08:26;2.17;;;2.00;;
15012;SDS011;7603;49.432;11.418;2022-08-21T14:11:00;2.17;;;1.60;;
15012;SDS011;7603;49.432;11.418;2022-08-21T14:13:37;2.25;;;1.77;;
15012;SDS011;7603;49.432;11.418;2022-08-21T14:16:15;1.80;;;1.70;;
15012;SDS011;7603;49.432;11.418;2022-08-21T14:18:50;1.70;;;1.60;;
15012;SDS011;7603;49.432;11.418;2022-08-21T14:21:33;1.50;;;1.50;;
15012;SDS011;7603;49.432;11.418;2022-08-21T14:24:05;1.65;;;1.65;;
15012;SDS011;7603;49.432;11.418;2022-08-21T14:26:51;2.17;;;1.80;;
15012;SDS011;7603;49.432;11.418;2022-08-21T14:29:26;1.60;;;1.60;;
15012;SDS011;7603;49.432;11.418;2022-08-21T14:31:59;1.63;;;1.63;;
15012;SDS011;7603;49.432;11.418;2022-08-21T14:34:37;1.70;;;1.70;;
15012;SDS011;7603;49.432;11.418;2022-08-21T14:37:03;1.55;;;1.55;;
15012;SDS011;7603;49.432;11.418;2022-08-21T14:39:28;1.58;;;1.58;;
15012;SDS011;7603;49.432;11.418;2022-08-21T14:41:54;1.50;;;1.50;;
15012;SDS011;7603;49.432;11.418;2022-08-21T14:44:22;1.75;;;1.67;;
15012;SDS011;7603;49.432;11.418;2022-08-21T14:46:49;1.80;;;1.70;;
15012;SDS011;7603;49.432;11.418;2022-08-21T14:49:15;2.55;;;1.95;;
15012;SDS011;7603;49.432;11.418;2022-08-21T14:51:41;2.15;;;1.70;;
15012;SDS011;7603;49.432;11.418;2022-08-21T14:54:06;2.38;;;1.63;;
15012;SDS011;7603;49.432;11.418;2022-08-21T14:56:33;1.77;;;1.77;;
15012;SDS011;7603;49.432;11.418;2022-08-21T14:59:04;2.00;;;1.90;;
15012;SDS011;7603;49.432;11.418;2022-08-21T15:01:31;2.05;;;1.95;;
15012;SDS011;7603;49.432;11.418;2022-08-21T15:04:00;1.92;;;1.92;;
15012;SDS011;7603;49.432;11.418;2022-08-21T15:06:26;1.77;;;1.67;;
15012;SDS011;7603;49.432;11.418;2022-08-21T15:08:51;1.67;;;1.60;;
15012;SDS011;7603;49.432;11.418;2022-08-21T15:11:18;1.65;;;1.65;;
15012;SDS011;7603;49.432;11.418;2022-08-21T15:13:46;1.65;;;1.55;;
15012;SDS011;7603;49.432;11.418;2022-08-21T15:16:13;1.77;;;1.67;;
15012;SDS011;7603;49.432;11.418;2022-08-21T15:18:39;1.73;;;1.65;;
15012;SDS011;7603;49.432;11.418;2022-08-21T15:21:05;1.50;;;1.50;;
15012;SDS011;7603;49.432;11.418;2022-08-21T15:23:31;1.65;;;1.55;;
15012;SDS011;7603;49.432;11.418;2022-08-21T15:25:56;1.63;;;1.63;;
15012;SDS011;7603;49.432;11.418;2022-08-21T15:28:25;2.35;;;2.00;;
15012;SDS011;7603;49.432;11.418;2022-08-21T15:30:50;4.72;;;1.70;;
15012;SDS011;7603;49.432;11.418;2022-08-21T15:33:16;1.83;;;1.73;;
15012;SDS011;7603;49.432;11.418;2022-08-21T15:35:43;1.65;;;1.55;;
15012;SDS011;7603;49.432;11.418;2022-08-21T15:38:08;1.73;;;1.63;;
15012;SDS011;7603;49.432;11.418;2022-08-21T15:40:35;1.70;;;1.70;;
15012;SDS011;7603;49.432;11.418;2022-08-21T15:43:01;1.70;;;1.60;;
15012;SDS011;7603;49.432;11.418;2022-08-21T15:45:29;1.70;;;1.70;;
15012;SDS011;7603;49.432;11.418;2022-08-21T15:47:55;1.98;;;1.95;;
15012;SDS011;7603;49.432;11.418;2022-08-21T15:50:21;1.83;;;1.73;;
15012;SDS011;7603;49.432;11.418;2022-08-21T15:52:48;1.98;;;1.88;;
15012;SDS011;7603;49.432;11.418;2022-08-21T15:55:15;1.63;;;1.63;;